sensor_id;sensor_type;location;lat;lon;timestamp;temperature;humidity
4279;DHT22;2153;47.744;10.580;2022-10-16T00:01:38;10.30;99.90
4279;DHT22;2153;47.744;10.580;2022-10-16T00:04:05;10.20;99.90
4279;DHT22;2153;47.744;10.580;2022-10-16T00:06:32;10.20;99.90
4279;DHT22;2153;47.744;10.580;2022-10-16T00:09:00;10.10;99.90
4279;DHT22;2153;47.744;10.580;2022-10-16T00:11:29;10.10;99.90
4279;DHT22;2153;47.744;10.580;2022-10-16T00:14:00;10.00;99.90
4279;DHT22;2153;47.744;10.580;2022-10-16T00:16:28;9.90;99.90
4279;DHT22;2153;47.744;10.580;2022-10-16T00:18:55;9.90;99.90
4279;DHT22;2153;47.744;10.580;2022-10-16T00:21:24;9.90;99.90
4279;DHT22;2153;47.744;10.580;2022-10-16T00:23:51;10.00;99.90
4279;DHT22;2153;47.744;10.580;2022-10-16T00:26:20;10.20;99.90
4279;DHT22;2153;47.744;10.580;2022-10-16T00:28:48;10.30;99.90
4279;DHT22;2153;47.744;10.580;2022-10-16T00:31:17;10.40;99.90
4279;DHT22;2153;47.744;10.580;2022-10-16T00:33:44;10.50;99.90
4279;DHT22;2153;47.744;10.580;2022-10-16T00:36:12;10.40;99.90
4279;DHT22;2153;47.744;10.580;2022-10-16T00:38:40;10.40;99.90
4279;DHT22;2153;47.744;10.580;2022-10-16T00:41:09;10.40;99.90
4279;DHT22;2153;47.744;10.580;2022-10-16T00:43:41;10.40;99.90
4279;DHT22;2153;47.744;10.580;2022-10-16T00:46:15;10.50;99.90
4279;DHT22;2153;47.744;10.580;2022-10-16T00:48:46;10.50;99.90
4279;DHT22;2153;47.744;10.580;2022-10-16T00:51:15;10.50;99.90
4279;DHT22;2153;47.744;10.580;2022-10-16T00:53:44;10.40;99.90
4279;DHT22;2153;47.744;10.580;2022-10-16T00:56:11;10.20;99.90
4279;DHT22;2153;47.744;10.580;2022-10-16T00:58:39;10.10;99.90
4279;DHT22;2153;47.744;10.580;2022-10-16T01:01:06;10.10;99.90
4279;DHT22;2153;47.744;10.580;2022-10-16T01:03:35;10.10;99.90
4279;DHT22;2153;47.744;10.580;2022-10-16T01:06:22;10.20;99.90
4279;DHT22;2153;47.744;10.580;2022-10-16T01:08:58;10.20;99.90
4279;DHT22;2153;47.744;10.580;2022-10-16T01:11:33;10.20;99.90
4279;DHT22;2153;47.744;10.580;2022-10-16T01:14:11;10.20;99.90
4279;DHT22;2153;47.744;10.580;2022-10-16T01:16:45;10.20;99.90
4279;DHT22;2153;47.744;10.580;2022-10-16T01:19:20;10.00;99.90
4279;DHT22;2153;47.744;10.580;2022-10-16T01:21:53;10.00;99.90
4279;DHT22;2153;47.744;10.580;2022-10-16T01:24:29;10.10;99.90
4279;DHT22;2153;47.744;10.580;2022-10-16T01:27:09;10.10;99.90
4279;DHT22;2153;47.744;10.580;2022-10-16T01:29:41;10.20;99.90
4279;DHT22;2153;47.744;10.580;2022-10-16T01:32:15;10.30;99.90
4279;DHT22;2153;47.744;10.580;2022-10-16T01:34:48;10.30;99.90
4279;DHT22;2153;47.744;10.580;2022-10-16T01:37:23;10.30;99.90
4279;DHT22;2153;47.744;10.580;2022-10-16T01:39:53;10.40;99.90
4279;DHT22;2153;47.744;10.580;2022-10-16T01:42:26;10.40;99.90
4279;DHT22;2153;47.744;10.580;2022-10-16T01:44:56;10.40;99.90
4279;DHT22;2153;47.744;10.580;2022-10-16T01:47:25;10.40;99.90
4279;DHT22;2153;47.744;10.580;2022-10-16T01:49:53;10.50;99.90
4279;DHT22;2153;47.744;10.580;2022-10-16T01:52:24;10.50;99.90
4279;DHT22;2153;47.744;10.580;2022-10-16T01:54:54;10.50;99.90
4279;DHT22;2153;47.744;10.580;2022-10-16T01:57:23;10.30;99.90
4279;DHT22;2153;47.744;10.580;2022-10-16T01:59:53;10.30;99.90
4279;DHT22;2153;47.744;10.580;2022-10-16T02:02:22;10.40;99.90
4279;DHT22;2153;47.744;10.580;2022-10-16T02:04:57;10.40;99.90
4279;DHT22;2153;47.744;10.580;2022-10-16T02:07:24;10.50;99.90
4279;DHT22;2153;47.744;10.580;2022-10-16T02:09:51;10.60;99.90
4279;DHT22;2153;47.744;10.580;2022-10-16T02:12:26;10.60;99.90
4279;DHT22;2153;47.744;10.580;2022-10-16T02:14:53;10.70;99.90
4279;DHT22;2153;47.744;10.580;2022-10-16T02:17:20;10.70;99.90
4279;DHT22;2153;47.744;10.580;2022-10-16T02:19:49;10.80;99.90
4279;DHT22;2153;47.744;10.580;2022-10-16T02:22:22;10.90;99.90
4279;DHT22;2153;47.744;10.580;2022-10-16T02:24:54;10.90;99.90
4279;DHT22;2153;47.744;10.580;2022-10-16T02:27:29;11.00;99.90
4279;DHT22;2153;47.744;10.580;2022-10-16T02:30:02;11.10;99.90
4279;DHT22;2153;47.744;10.580;2022-10-16T02:32:34;11.10;99.90
4279;DHT22;2153;47.744;10.580;2022-10-16T02:35:01;11.20;99.90
4279;DHT22;2153;47.744;10.580;2022-10-16T02:37:29;11.20;99.90
4279;DHT22;2153;47.744;10.580;2022-10-16T02:39:57;11.30;99.90
4279;DHT22;2153;47.744;10.580;2022-10-16T02:42:31;11.30;99.90
4279;DHT22;2153;47.744;10.580;2022-10-16T02:44:59;11.30;99.90
4279;DHT22;2153;47.744;10.580;2022-10-16T02:47:26;11.30;99.90
4279;DHT22;2153;47.744;10.580;2022-10-16T02:49:52;11.30;99.90
4279;DHT22;2153;47.744;10.580;2022-10-16T02:52:19;11.50;99.90
4279;DHT22;2153;47.744;10.580;2022-10-16T02:54:46;11.50;99.90
4279;DHT22;2153;47.744;10.580;2022-10-16T02:57:13;11.60;99.90
4279;DHT22;2153;47.744;10.580;2022-10-16T02:59:41;11.70;99.90
4279;DHT22;2153;47.744;10.580;2022-10-16T03:02:08;11.70;99.90
4279;DHT22;2153;47.744;10.580;2022-10-16T03:04:35;11.70;99.90
4279;DHT22;2153;47.744;10.580;2022-10-16T03:07:02;11.70;99.90
4279;DHT22;2153;47.744;10.580;2022-10-16T03:09:29;11.70;99.90
4279;DHT22;2153;47.744;10.580;2022-10-16T03:11:55;11.70;99.90
4279;DHT22;2153;47.744;10.580;2022-10-16T03:14:22;11.70;99.90
4279;DHT22;2153;47.744;10.580;2022-10-16T03:16:50;11.80;99.90
4279;DHT22;2153;47.744;10.580;2022-10-16T03:19:17;11.70;99.90
4279;DHT22;2153;47.744;10.580;2022-10-16T03:21:45;11.70;99.90
4279;DHT22;2153;47.744;10.580;2022-10-16T03:24:11;11.70;99.90
4279;DHT22;2153;47.744;10.580;2022-10-16T03:26:38;11.70;99.90
4279;DHT22;2153;47.744;10.580;2022-10-16T03:29:05;11.80;99.90
4279;DHT22;2153;47.744;10.580;2022-10-16T03:31:32;11.80;99.90
4279;DHT22;2153;47.744;10.580;2022-10-16T03:34:00;11.80;99.90
4279;DHT22;2153;47.744;10.580;2022-10-16T03:36:27;11.80;99.90
4279;DHT22;2153;47.744;10.580;2022-10-16T03:38:54;11.90;99.90
4279;DHT22;2153;47.744;10.580;2022-10-16T03:41:21;11.90;99.90
4279;DHT22;2153;47.744;10.580;2022-10-16T03:43:48;11.90;99.90
4279;DHT22;2153;47.744;10.580;2022-10-16T03:46:15;11.90;99.90
4279;DHT22;2153;47.744;10.580;2022-10-16T03:48:42;11.90;99.90
4279;DHT22;2153;47.744;10.580;2022-10-16T03:51:10;11.90;99.90
4279;DHT22;2153;47.744;10.580;2022-10-16T03:53:37;12.00;99.90
4279;DHT22;2153;47.744;10.580;2022-10-16T03:56:04;12.00;99.90
4279;DHT22;2153;47.744;10.580;2022-10-16T03:58:31;12.00;99.90
4279;DHT22;2153;47.744;10.580;2022-10-16T04:00:58;12.00;99.90
4279;DHT22;2153;47.744;10.580;2022-10-16T04:03:25;11.90;99.90
4279;DHT22;2153;47.744;10.580;2022-10-16T04:05:51;11.90;99.90
4279;DHT22;2153;47.744;10.580;2022-10-16T04:08:20;12.00;99.90
4279;DHT22;2153;47.744;10.580;2022-10-16T04:10:46;12.10;99.90
4279;DHT22;2153;47.744;10.580;2022-10-16T04:13:13;12.10;99.90
4279;DHT22;2153;47.744;10.580;2022-10-16T04:15:40;12.00;99.90
4279;DHT22;2153;47.744;10.580;2022-10-16T04:18:07;12.00;99.90
4279;DHT22;2153;47.744;10.580;2022-10-16T04:20:34;12.10;99.90
4279;DHT22;2153;47.744;10.580;2022-10-16T04:23:01;12.20;99.90
4279;DHT22;2153;47.744;10.580;2022-10-16T04:25:29;12.30;99.90
4279;DHT22;2153;47.744;10.580;2022-10-16T04:27:56;12.40;99.90
4279;DHT22;2153;47.744;10.580;2022-10-16T04:30:23;12.30;99.90
4279;DHT22;2153;47.744;10.580;2022-10-16T04:32:51;12.40;99.90
4279;DHT22;2153;47.744;10.580;2022-10-16T04:35:18;12.50;99.90
4279;DHT22;2153;47.744;10.580;2022-10-16T04:37:45;12.50;99.90
4279;DHT22;2153;47.744;10.580;2022-10-16T04:40:13;12.40;99.90
4279;DHT22;2153;47.744;10.580;2022-10-16T04:42:41;12.40;99.90
4279;DHT22;2153;47.744;10.580;2022-10-16T04:45:09;12.30;99.90
4279;DHT22;2153;47.744;10.580;2022-10-16T04:47:36;12.30;99.90
4279;DHT22;2153;47.744;10.580;2022-10-16T04:50:03;12.30;99.90
4279;DHT22;2153;47.744;10.580;2022-10-16T04:52:30;12.20;99.90
4279;DHT22;2153;47.744;10.580;2022-10-16T04:54:57;12.20;99.90
4279;DHT22;2153;47.744;10.580;2022-10-16T04:57:27;12.10;99.90
4279;DHT22;2153;47.744;10.580;2022-10-16T04:59:55;12.10;99.90
4279;DHT22;2153;47.744;10.580;2022-10-16T05:02:22;12.10;99.90
4279;DHT22;2153;47.744;10.580;2022-10-16T05:04:49;12.00;99.90
4279;DHT22;2153;47.744;10.580;2022-10-16T05:07:16;12.00;99.90
4279;DHT22;2153;47.744;10.580;2022-10-16T05:09:43;12.00;99.90
4279;DHT22;2153;47.744;10.580;2022-10-16T05:12:09;12.00;99.90
4279;DHT22;2153;47.744;10.580;2022-10-16T05:14:36;11.90;99.90
4279;DHT22;2153;47.744;10.580;2022-10-16T05:17:04;11.90;99.90
4279;DHT22;2153;47.744;10.580;2022-10-16T05:19:31;11.80;99.90
4279;DHT22;2153;47.744;10.580;2022-10-16T05:21:58;11.70;99.90
4279;DHT22;2153;47.744;10.580;2022-10-16T05:24:25;11.70;99.90
4279;DHT22;2153;47.744;10.580;2022-10-16T05:26:52;11.60;99.90
4279;DHT22;2153;47.744;10.580;2022-10-16T05:29:19;11.60;99.90
4279;DHT22;2153;47.744;10.580;2022-10-16T05:31:46;11.50;99.90
4279;DHT22;2153;47.744;10.580;2022-10-16T05:34:14;11.50;99.90
4279;DHT22;2153;47.744;10.580;2022-10-16T05:36:41;11.50;99.90
4279;DHT22;2153;47.744;10.580;2022-10-16T05:39:10;11.50;99.90
4279;DHT22;2153;47.744;10.580;2022-10-16T05:41:37;11.40;99.90
4279;DHT22;2153;47.744;10.580;2022-10-16T05:44:04;11.40;99.90
4279;DHT22;2153;47.744;10.580;2022-10-16T05:46:32;11.40;99.90
4279;DHT22;2153;47.744;10.580;2022-10-16T05:48:59;11.40;99.90
4279;DHT22;2153;47.744;10.580;2022-10-16T05:51:27;11.50;99.90
4279;DHT22;2153;47.744;10.580;2022-10-16T05:53:54;11.50;99.90
4279;DHT22;2153;47.744;10.580;2022-10-16T05:56:21;11.50;99.90
4279;DHT22;2153;47.744;10.580;2022-10-16T05:58:48;11.50;99.90
4279;DHT22;2153;47.744;10.580;2022-10-16T06:01:16;11.60;99.90
4279;DHT22;2153;47.744;10.580;2022-10-16T06:03:43;11.80;99.90
4279;DHT22;2153;47.744;10.580;2022-10-16T06:06:12;12.30;99.90
4279;DHT22;2153;47.744;10.580;2022-10-16T06:08:41;12.40;99.90
4279;DHT22;2153;47.744;10.580;2022-10-16T06:11:09;12.20;99.90
4279;DHT22;2153;47.744;10.580;2022-10-16T06:13:36;12.10;99.90
4279;DHT22;2153;47.744;10.580;2022-10-16T06:16:05;12.10;99.90
4279;DHT22;2153;47.744;10.580;2022-10-16T06:18:32;12.10;99.90
4279;DHT22;2153;47.744;10.580;2022-10-16T06:20:59;12.00;99.90
4279;DHT22;2153;47.744;10.580;2022-10-16T06:23:27;12.00;99.90
4279;DHT22;2153;47.744;10.580;2022-10-16T06:26:04;12.00;99.90
4279;DHT22;2153;47.744;10.580;2022-10-16T06:28:31;11.90;99.90
4279;DHT22;2153;47.744;10.580;2022-10-16T06:30:59;12.00;99.90
4279;DHT22;2153;47.744;10.580;2022-10-16T06:33:26;12.00;99.90
4279;DHT22;2153;47.744;10.580;2022-10-16T06:35:52;12.00;99.90
4279;DHT22;2153;47.744;10.580;2022-10-16T06:38:19;12.00;99.90
4279;DHT22;2153;47.744;10.580;2022-10-16T06:40:46;12.10;99.90
4279;DHT22;2153;47.744;10.580;2022-10-16T06:43:15;12.10;99.90
4279;DHT22;2153;47.744;10.580;2022-10-16T06:45:42;12.20;99.90
4279;DHT22;2153;47.744;10.580;2022-10-16T06:48:09;12.20;99.90
4279;DHT22;2153;47.744;10.580;2022-10-16T06:50:35;12.30;99.90
4279;DHT22;2153;47.744;10.580;2022-10-16T06:53:02;12.30;99.90
4279;DHT22;2153;47.744;10.580;2022-10-16T06:55:29;12.40;99.90
4279;DHT22;2153;47.744;10.580;2022-10-16T06:57:56;12.50;99.90
4279;DHT22;2153;47.744;10.580;2022-10-16T07:00:24;12.60;99.90
4279;DHT22;2153;47.744;10.580;2022-10-16T07:02:54;12.60;99.90
4279;DHT22;2153;47.744;10.580;2022-10-16T07:05:21;12.70;99.90
4279;DHT22;2153;47.744;10.580;2022-10-16T07:07:48;12.90;99.90
4279;DHT22;2153;47.744;10.580;2022-10-16T07:10:14;13.00;99.90
4279;DHT22;2153;47.744;10.580;2022-10-16T07:12:41;13.20;99.90
4279;DHT22;2153;47.744;10.580;2022-10-16T07:15:10;13.30;99.90
4279;DHT22;2153;47.744;10.580;2022-10-16T07:17:39;13.50;99.90
4279;DHT22;2153;47.744;10.580;2022-10-16T07:20:07;13.50;99.90
4279;DHT22;2153;47.744;10.580;2022-10-16T07:22:34;13.60;99.90
4279;DHT22;2153;47.744;10.580;2022-10-16T07:25:00;13.70;99.90
4279;DHT22;2153;47.744;10.580;2022-10-16T07:27:28;13.80;99.90
4279;DHT22;2153;47.744;10.580;2022-10-16T07:29:55;14.00;99.90
4279;DHT22;2153;47.744;10.580;2022-10-16T07:32:22;14.20;99.90
4279;DHT22;2153;47.744;10.580;2022-10-16T07:34:52;14.40;99.90
4279;DHT22;2153;47.744;10.580;2022-10-16T07:37:21;14.60;99.90
4279;DHT22;2153;47.744;10.580;2022-10-16T07:39:48;14.70;99.90
4279;DHT22;2153;47.744;10.580;2022-10-16T07:42:15;14.90;99.90
4279;DHT22;2153;47.744;10.580;2022-10-16T07:44:41;15.10;99.90
4279;DHT22;2153;47.744;10.580;2022-10-16T07:47:09;15.30;99.90
4279;DHT22;2153;47.744;10.580;2022-10-16T07:49:36;15.40;99.90
4279;DHT22;2153;47.744;10.580;2022-10-16T07:52:04;15.40;99.90
4279;DHT22;2153;47.744;10.580;2022-10-16T07:54:31;15.50;99.90
4279;DHT22;2153;47.744;10.580;2022-10-16T07:56:58;15.70;99.90
4279;DHT22;2153;47.744;10.580;2022-10-16T07:59:25;15.80;99.90
4279;DHT22;2153;47.744;10.580;2022-10-16T08:01:52;16.20;99.90
4279;DHT22;2153;47.744;10.580;2022-10-16T08:04:18;16.80;99.90
4279;DHT22;2153;47.744;10.580;2022-10-16T08:06:45;17.60;99.90
4279;DHT22;2153;47.744;10.580;2022-10-16T08:09:13;18.40;99.90
4279;DHT22;2153;47.744;10.580;2022-10-16T08:11:40;19.10;99.90
4279;DHT22;2153;47.744;10.580;2022-10-16T08:14:07;18.90;99.90
4279;DHT22;2153;47.744;10.580;2022-10-16T08:16:34;18.80;99.90
4279;DHT22;2153;47.744;10.580;2022-10-16T08:19:01;18.60;99.90
4279;DHT22;2153;47.744;10.580;2022-10-16T08:21:28;18.70;99.90
4279;DHT22;2153;47.744;10.580;2022-10-16T08:23:54;18.40;99.90
4279;DHT22;2153;47.744;10.580;2022-10-16T08:26:23;18.10;99.90
4279;DHT22;2153;47.744;10.580;2022-10-16T08:28:50;18.50;99.90
4279;DHT22;2153;47.744;10.580;2022-10-16T08:31:17;19.60;99.90
4279;DHT22;2153;47.744;10.580;2022-10-16T08:33:44;19.90;99.90
4279;DHT22;2153;47.744;10.580;2022-10-16T08:36:13;20.50;99.90
4279;DHT22;2153;47.744;10.580;2022-10-16T08:38:40;20.80;99.90
4279;DHT22;2153;47.744;10.580;2022-10-16T08:41:21;21.10;99.90
4279;DHT22;2153;47.744;10.580;2022-10-16T08:44:18;21.10;99.90
4279;DHT22;2153;47.744;10.580;2022-10-16T08:46:54;20.50;99.90
4279;DHT22;2153;47.744;10.580;2022-10-16T08:49:22;20.50;99.90
4279;DHT22;2153;47.744;10.580;2022-10-16T08:51:50;20.50;99.90
4279;DHT22;2153;47.744;10.580;2022-10-16T08:54:27;20.10;99.90
4279;DHT22;2153;47.744;10.580;2022-10-16T08:56:55;20.00;99.90
4279;DHT22;2153;47.744;10.580;2022-10-16T08:59:24;19.70;99.90
4279;DHT22;2153;47.744;10.580;2022-10-16T09:01:51;20.10;99.90
4279;DHT22;2153;47.744;10.580;2022-10-16T09:04:54;20.70;99.90
4279;DHT22;2153;47.744;10.580;2022-10-16T09:07:29;21.40;99.90
4279;DHT22;2153;47.744;10.580;2022-10-16T09:10:10;22.10;99.90
4279;DHT22;2153;47.744;10.580;2022-10-16T09:12:42;22.80;99.90
4279;DHT22;2153;47.744;10.580;2022-10-16T09:15:25;22.00;99.90
4279;DHT22;2153;47.744;10.580;2022-10-16T09:18:00;21.60;99.90
4279;DHT22;2153;47.744;10.580;2022-10-16T09:20:32;21.60;99.90
4279;DHT22;2153;47.744;10.580;2022-10-16T09:23:13;21.20;99.90
4279;DHT22;2153;47.744;10.580;2022-10-16T09:25:43;21.00;99.90
4279;DHT22;2153;47.744;10.580;2022-10-16T09:28:11;20.50;99.90
4279;DHT22;2153;47.744;10.580;2022-10-16T09:30:39;20.20;99.90
4279;DHT22;2153;47.744;10.580;2022-10-16T09:33:08;20.20;99.90
4279;DHT22;2153;47.744;10.580;2022-10-16T09:35:38;20.30;99.90
4279;DHT22;2153;47.744;10.580;2022-10-16T09:38:05;20.50;99.90
4279;DHT22;2153;47.744;10.580;2022-10-16T09:40:34;20.60;99.90
4279;DHT22;2153;47.744;10.580;2022-10-16T09:43:11;20.70;99.90
4279;DHT22;2153;47.744;10.580;2022-10-16T09:45:41;20.70;99.90
4279;DHT22;2153;47.744;10.580;2022-10-16T09:48:12;20.70;99.90
4279;DHT22;2153;47.744;10.580;2022-10-16T09:50:39;20.50;99.90
4279;DHT22;2153;47.744;10.580;2022-10-16T09:53:11;20.50;99.90
4279;DHT22;2153;47.744;10.580;2022-10-16T09:55:48;20.70;99.90
4279;DHT22;2153;47.744;10.580;2022-10-16T09:58:15;20.80;99.90
4279;DHT22;2153;47.744;10.580;2022-10-16T10:00:49;20.90;99.90
4279;DHT22;2153;47.744;10.580;2022-10-16T10:03:32;21.00;99.90
4279;DHT22;2153;47.744;10.580;2022-10-16T10:06:06;21.50;99.90
4279;DHT22;2153;47.744;10.580;2022-10-16T10:08:33;22.00;99.90
4279;DHT22;2153;47.744;10.580;2022-10-16T10:11:00;23.10;99.90
4279;DHT22;2153;47.744;10.580;2022-10-16T10:13:27;23.50;99.90
4279;DHT22;2153;47.744;10.580;2022-10-16T10:15:55;23.50;99.90
4279;DHT22;2153;47.744;10.580;2022-10-16T10:18:22;23.70;99.90
4279;DHT22;2153;47.744;10.580;2022-10-16T10:20:57;24.10;99.90
4279;DHT22;2153;47.744;10.580;2022-10-16T10:23:27;24.90;99.90
4279;DHT22;2153;47.744;10.580;2022-10-16T10:25:58;25.40;99.90
4279;DHT22;2153;47.744;10.580;2022-10-16T10:28:42;25.70;99.90
4279;DHT22;2153;47.744;10.580;2022-10-16T10:31:19;26.10;99.90
4279;DHT22;2153;47.744;10.580;2022-10-16T10:33:54;26.20;99.90
4279;DHT22;2153;47.744;10.580;2022-10-16T10:36:27;26.40;95.90
4279;DHT22;2153;47.744;10.580;2022-10-16T10:38:59;26.80;99.90
4279;DHT22;2153;47.744;10.580;2022-10-16T10:42:06;27.00;98.40
4279;DHT22;2153;47.744;10.580;2022-10-16T10:44:51;26.90;75.60
4279;DHT22;2153;47.744;10.580;2022-10-16T10:47:35;26.90;64.60
4279;DHT22;2153;47.744;10.580;2022-10-16T10:50:14;26.60;59.50
4279;DHT22;2153;47.744;10.580;2022-10-16T10:52:52;26.20;63.90
4279;DHT22;2153;47.744;10.580;2022-10-16T10:55:24;25.90;56.80
4279;DHT22;2153;47.744;10.580;2022-10-16T10:58:15;26.00;94.40
4279;DHT22;2153;47.744;10.580;2022-10-16T11:00:51;26.20;87.00
4279;DHT22;2153;47.744;10.580;2022-10-16T11:03:35;26.10;86.40
4279;DHT22;2153;47.744;10.580;2022-10-16T11:06:10;26.00;82.60
4279;DHT22;2153;47.744;10.580;2022-10-16T11:08:41;26.00;77.00
4279;DHT22;2153;47.744;10.580;2022-10-16T11:11:11;25.80;93.00
4279;DHT22;2153;47.744;10.580;2022-10-16T11:13:45;25.70;90.40
4279;DHT22;2153;47.744;10.580;2022-10-16T11:16:19;25.90;88.90
4279;DHT22;2153;47.744;10.580;2022-10-16T11:18:53;25.90;91.80
4279;DHT22;2153;47.744;10.580;2022-10-16T11:21:23;25.70;95.10
4279;DHT22;2153;47.744;10.580;2022-10-16T11:23:53;25.70;95.10
4279;DHT22;2153;47.744;10.580;2022-10-16T11:26:26;25.70;87.80
4279;DHT22;2153;47.744;10.580;2022-10-16T11:28:55;25.70;75.30
4279;DHT22;2153;47.744;10.580;2022-10-16T11:31:27;25.80;95.00
4279;DHT22;2153;47.744;10.580;2022-10-16T11:34:02;25.90;90.60
4279;DHT22;2153;47.744;10.580;2022-10-16T11:36:36;25.90;92.20
4279;DHT22;2153;47.744;10.580;2022-10-16T11:39:22;25.80;90.30
4279;DHT22;2153;47.744;10.580;2022-10-16T11:41:52;25.80;69.90
4279;DHT22;2153;47.744;10.580;2022-10-16T11:44:30;25.80;69.90
4279;DHT22;2153;47.744;10.580;2022-10-16T11:47:04;26.00;94.60
4279;DHT22;2153;47.744;10.580;2022-10-16T11:49:37;25.90;80.90
4279;DHT22;2153;47.744;10.580;2022-10-16T11:52:12;25.70;70.50
4279;DHT22;2153;47.744;10.580;2022-10-16T11:54:47;25.90;79.80
4279;DHT22;2153;47.744;10.580;2022-10-16T11:57:19;26.00;78.70
4279;DHT22;2153;47.744;10.580;2022-10-16T11:59:49;25.90;62.90
4279;DHT22;2153;47.744;10.580;2022-10-16T12:02:33;25.90;69.70
4279;DHT22;2153;47.744;10.580;2022-10-16T12:05:14;26.10;77.90
4279;DHT22;2153;47.744;10.580;2022-10-16T12:07:51;26.30;87.50
4279;DHT22;2153;47.744;10.580;2022-10-16T12:10:24;26.20;80.50
4279;DHT22;2153;47.744;10.580;2022-10-16T12:12:51;26.00;86.50
4279;DHT22;2153;47.744;10.580;2022-10-16T12:15:22;26.00;76.90
4279;DHT22;2153;47.744;10.580;2022-10-16T12:17:49;26.00;88.30
4279;DHT22;2153;47.744;10.580;2022-10-16T12:20:35;26.00;72.10
4279;DHT22;2153;47.744;10.580;2022-10-16T12:23:04;25.80;49.30
4279;DHT22;2153;47.744;10.580;2022-10-16T12:25:34;25.90;81.90
4279;DHT22;2153;47.744;10.580;2022-10-16T12:28:03;26.10;87.00
4279;DHT22;2153;47.744;10.580;2022-10-16T12:30:33;26.10;78.40
4279;DHT22;2153;47.744;10.580;2022-10-16T12:33:02;26.00;66.10
4279;DHT22;2153;47.744;10.580;2022-10-16T12:35:32;25.90;69.30
4279;DHT22;2153;47.744;10.580;2022-10-16T12:38:13;25.70;45.80
4279;DHT22;2153;47.744;10.580;2022-10-16T12:40:43;25.90;70.30
4279;DHT22;2153;47.744;10.580;2022-10-16T12:43:26;26.00;61.10
4279;DHT22;2153;47.744;10.580;2022-10-16T12:46:02;26.10;57.80
4279;DHT22;2153;47.744;10.580;2022-10-16T12:48:29;26.30;75.00
4279;DHT22;2153;47.744;10.580;2022-10-16T12:50:56;26.50;48.40
4279;DHT22;2153;47.744;10.580;2022-10-16T12:53:26;26.40;54.10
4279;DHT22;2153;47.744;10.580;2022-10-16T12:56:03;26.30;58.70
4279;DHT22;2153;47.744;10.580;2022-10-16T12:58:51;26.40;50.10
4279;DHT22;2153;47.744;10.580;2022-10-16T13:01:33;26.30;59.80
4279;DHT22;2153;47.744;10.580;2022-10-16T13:04:25;26.20;41.20
4279;DHT22;2153;47.744;10.580;2022-10-16T13:07:00;25.90;47.80
4279;DHT22;2153;47.744;10.580;2022-10-16T13:09:41;25.90;46.20
4279;DHT22;2153;47.744;10.580;2022-10-16T13:12:21;25.90;50.40
4279;DHT22;2153;47.744;10.580;2022-10-16T13:15:22;25.80;51.10
4279;DHT22;2153;47.744;10.580;2022-10-16T13:17:56;25.60;55.30
4279;DHT22;2153;47.744;10.580;2022-10-16T13:20:30;25.50;32.70
4279;DHT22;2153;47.744;10.580;2022-10-16T13:23:07;25.50;49.90
4279;DHT22;2153;47.744;10.580;2022-10-16T13:25:50;25.50;61.70
4279;DHT22;2153;47.744;10.580;2022-10-16T13:28:27;25.60;75.40
4279;DHT22;2153;47.744;10.580;2022-10-16T13:30:57;25.60;55.80
4279;DHT22;2153;47.744;10.580;2022-10-16T13:33:30;25.40;44.70
4279;DHT22;2153;47.744;10.580;2022-10-16T13:35:58;25.40;92.30
4279;DHT22;2153;47.744;10.580;2022-10-16T13:38:26;25.50;75.70
4279;DHT22;2153;47.744;10.580;2022-10-16T13:40:56;25.50;74.00
4279;DHT22;2153;47.744;10.580;2022-10-16T13:43:27;25.30;88.10
4279;DHT22;2153;47.744;10.580;2022-10-16T13:45:57;25.50;99.90
4279;DHT22;2153;47.744;10.580;2022-10-16T13:48:25;25.30;87.20
4279;DHT22;2153;47.744;10.580;2022-10-16T13:51:06;24.80;72.60
4279;DHT22;2153;47.744;10.580;2022-10-16T13:53:35;24.30;75.10
4279;DHT22;2153;47.744;10.580;2022-10-16T13:56:05;24.20;75.20
4279;DHT22;2153;47.744;10.580;2022-10-16T13:58:32;24.30;89.40
4279;DHT22;2153;47.744;10.580;2022-10-16T14:01:01;24.30;89.50
4279;DHT22;2153;47.744;10.580;2022-10-16T14:03:29;24.20;83.60
4279;DHT22;2153;47.744;10.580;2022-10-16T14:05:59;24.10;80.70
4279;DHT22;2153;47.744;10.580;2022-10-16T14:08:27;24.10;77.50
4279;DHT22;2153;47.744;10.580;2022-10-16T14:10:56;24.10;83.30
4279;DHT22;2153;47.744;10.580;2022-10-16T14:13:30;24.10;84.30
4279;DHT22;2153;47.744;10.580;2022-10-16T14:16:01;24.00;91.40
4279;DHT22;2153;47.744;10.580;2022-10-16T14:18:29;23.90;87.50
4279;DHT22;2153;47.744;10.580;2022-10-16T14:21:03;23.70;84.20
4279;DHT22;2153;47.744;10.580;2022-10-16T14:23:31;23.60;99.90
4279;DHT22;2153;47.744;10.580;2022-10-16T14:26:22;23.60;99.00
4279;DHT22;2153;47.744;10.580;2022-10-16T14:29:03;23.70;99.90
4279;DHT22;2153;47.744;10.580;2022-10-16T14:31:35;23.70;99.90
4279;DHT22;2153;47.744;10.580;2022-10-16T14:34:03;23.60;99.90
4279;DHT22;2153;47.744;10.580;2022-10-16T14:36:30;23.60;99.90
4279;DHT22;2153;47.744;10.580;2022-10-16T14:39:00;23.50;99.90
4279;DHT22;2153;47.744;10.580;2022-10-16T14:41:29;23.40;99.90
4279;DHT22;2153;47.744;10.580;2022-10-16T14:44:01;23.20;99.90
4279;DHT22;2153;47.744;10.580;2022-10-16T14:46:32;23.10;99.90
4279;DHT22;2153;47.744;10.580;2022-10-16T14:49:03;23.00;99.90
4279;DHT22;2153;47.744;10.580;2022-10-16T14:51:30;23.00;99.90
4279;DHT22;2153;47.744;10.580;2022-10-16T14:53:57;22.90;99.90
4279;DHT22;2153;47.744;10.580;2022-10-16T14:56:25;22.90;99.90
4279;DHT22;2153;47.744;10.580;2022-10-16T14:58:56;22.80;99.90
4279;DHT22;2153;47.744;10.580;2022-10-16T15:01:23;22.70;99.90
4279;DHT22;2153;47.744;10.580;2022-10-16T15:03:50;22.40;99.90
4279;DHT22;2153;47.744;10.580;2022-10-16T15:06:20;22.10;99.90
4279;DHT22;2153;47.744;10.580;2022-10-16T15:08:46;21.90;99.90
4279;DHT22;2153;47.744;10.580;2022-10-16T15:11:15;21.80;99.90
4279;DHT22;2153;47.744;10.580;2022-10-16T15:13:43;21.90;99.90
4279;DHT22;2153;47.744;10.580;2022-10-16T15:16:13;21.80;99.90
4279;DHT22;2153;47.744;10.580;2022-10-16T15:18:40;21.90;99.90
4279;DHT22;2153;47.744;10.580;2022-10-16T15:21:07;21.80;99.90
4279;DHT22;2153;47.744;10.580;2022-10-16T15:23:34;21.60;99.90
4279;DHT22;2153;47.744;10.580;2022-10-16T15:26:01;21.50;99.90
4279;DHT22;2153;47.744;10.580;2022-10-16T15:28:28;21.40;99.90
4279;DHT22;2153;47.744;10.580;2022-10-16T15:30:56;21.20;99.90
4279;DHT22;2153;47.744;10.580;2022-10-16T15:33:26;21.10;99.90
4279;DHT22;2153;47.744;10.580;2022-10-16T15:35:58;21.00;99.90
4279;DHT22;2153;47.744;10.580;2022-10-16T15:38:26;21.00;99.90
4279;DHT22;2153;47.744;10.580;2022-10-16T15:40:54;20.90;99.90
4279;DHT22;2153;47.744;10.580;2022-10-16T15:43:21;20.80;99.90
4279;DHT22;2153;47.744;10.580;2022-10-16T15:45:58;20.70;99.90
4279;DHT22;2153;47.744;10.580;2022-10-16T15:48:27;20.50;99.90
4279;DHT22;2153;47.744;10.580;2022-10-16T15:50:54;20.40;99.90
4279;DHT22;2153;47.744;10.580;2022-10-16T15:53:21;20.30;99.90
4279;DHT22;2153;47.744;10.580;2022-10-16T15:55:48;20.20;99.90
4279;DHT22;2153;47.744;10.580;2022-10-16T15:58:15;20.10;99.90
4279;DHT22;2153;47.744;10.580;2022-10-16T16:00:42;20.10;99.90
4279;DHT22;2153;47.744;10.580;2022-10-16T16:03:09;20.00;99.90
4279;DHT22;2153;47.744;10.580;2022-10-16T16:05:39;19.90;99.90
4279;DHT22;2153;47.744;10.580;2022-10-16T16:08:06;19.60;99.90